Time;durP1;ratioP1;P1;durP2;ratioP2;P2;SDS_P1;SDS_P2;PMS_P1;PMS_P2;Temp;Humidity;BMP_temperature;BMP_pressure;BME280_temperature;BME280_humidity;BME280_pressure;Samples;Min_cycle;Max_cycle;Signal;HPM_P1;HPM_P2
2024/03/02 00:01:11;;;;;;;;;;;;;;;10.83;81.85;98918.19;5118441;28;20323;-67
2024/03/02 00:03:40;;;;;;;;;;;;;;;10.74;82.03;98924.28;5116933;28;20020;-66
2024/03/02 00:06:09;;;;;;;;;;;;;;;10.67;82.16;98927.78;5116791;28;20266;-66
2024/03/02 00:08:37;;;;;;;;;;;;;;;10.63;82.38;98924.41;5117673;28;20374;-66
2024/03/02 00:11:06;;;;;;;;;;;;;;;10.55;82.47;98928.81;5116780;28;19923;-67
2024/03/02 00:13:35;;;;;;;;;;;;;;;10.49;82.49;98928.84;5118147;28;19928;-67
2024/03/02 00:16:06;;;;;;;;;;;;;;;10.43;82.69;98923.84;5117957;28;19923;-67
2024/03/02 00:18:36;;;;;;;;;;;;;;;10.39;83.07;98922.19;5118195;28;20369;-66
2024/03/02 00:21:09;;;;;;;;;;;;;;;10.31;83.05;98926.56;5116534;28;19927;-67
2024/03/02 00:23:39;;;;;;;;;;;;;;;10.25;83.33;98921.50;5118113;28;19931;-67
2024/03/02 00:26:12;;;;;;;;;;;;;;;10.16;83.25;98919.06;5117124;28;19946;-67
2024/03/02 00:28:41;;;;;;;;;;;;;;;10.05;83.61;98911.50;5116460;28;19972;-67
2024/03/02 00:31:12;;;;;;;;;;;;;;;10.00;83.69;98900.53;5099650;28;20319;-67
2024/03/02 00:33:43;;;;;;;;;;;;;;;9.95;83.70;98904.84;5116298;28;20408;-66
2024/03/02 00:36:12;;;;;;;;;;;;;;;9.91;84.04;98907.44;5117281;28;19924;-66
2024/03/02 00:38:46;;;;;;;;;;;;;;;9.88;84.26;98904.91;5117704;28;20023;-66
2024/03/02 00:41:20;;;;;;;;;;;;;;;9.82;84.33;98902.41;5117346;28;20300;-66
2024/03/02 00:43:52;;;;;;;;;;;;;;;9.81;84.68;98900.72;5117475;28;19927;-66
2024/03/02 00:46:23;;;;;;;;;;;;;;;9.77;84.64;98896.50;5117222;28;19923;-66
2024/03/02 00:48:54;;;;;;;;;;;;;;;9.68;84.36;98904.25;5117373;28;19928;-66
2024/03/02 00:51:23;;;;;;;;;;;;;;;9.62;84.53;98906.88;5117220;28;20293;-66
2024/03/02 00:53:52;;;;;;;;;;;;;;;9.59;84.62;98909.44;5117203;28;19925;-67
2024/03/02 00:56:21;;;;;;;;;;;;;;;9.56;84.56;98902.66;5117028;27;20392;-65
2024/03/02 00:58:49;;;;;;;;;;;;;;;9.54;84.77;98906.09;5117097;28;20291;-66
2024/03/02 01:01:18;;;;;;;;;;;;;;;9.50;84.85;98904.44;5116914;28;20370;-65
2024/03/02 01:03:48;;;;;;;;;;;;;;;9.43;85.26;98896.84;5116860;28;19928;-66
2024/03/02 01:06:19;;;;;;;;;;;;;;;9.37;85.13;98904.53;5115830;28;19931;-66
2024/03/02 01:08:50;;;;;;;;;;;;;;;9.32;85.09;98901.19;5115352;28;20287;-66
2024/03/02 01:11:21;;;;;;;;;;;;;;;9.28;84.95;98897.00;5116911;27;19930;-66
2024/03/02 01:13:51;;;;;;;;;;;;;;;9.30;85.30;98899.50;5116868;28;19923;-66
2024/03/02 01:16:21;;;;;;;;;;;;;;;9.19;85.45;98893.66;5116613;28;19924;-66
2024/03/02 01:18:51;;;;;;;;;;;;;;;9.17;85.62;98896.22;5116984;28;19930;-66
2024/03/02 01:21:19;;;;;;;;;;;;;;;9.18;85.27;98891.97;5116925;28;19930;-66
2024/03/02 01:23:48;;;;;;;;;;;;;;;9.18;86.29;98890.28;5097974;28;20030;-66
2024/03/02 01:26:17;;;;;;;;;;;;;;;9.18;85.90;98887.72;5116004;28;19928;-66
2024/03/02 01:28:45;;;;;;;;;;;;;;;9.09;85.40;98887.81;5115278;28;19923;-66
2024/03/02 01:31:13;;;;;;;;;;;;;;;9.08;85.90;98897.97;5115113;28;19945;-66
2024/03/02 01:33:42;;;;;;;;;;;;;;;9.12;85.95;98892.84;5116431;27;19957;-66
2024/03/02 01:36:12;;;;;;;;;;;;;;;9.05;86.35;98886.13;5115894;28;19923;-66
2024/03/02 01:38:41;;;;;;;;;;;;;;;9.01;85.69;98884.47;5116609;27;19930;-66
2024/03/02 01:41:09;;;;;;;;;;;;;;;8.95;85.80;98884.50;5116111;28;19930;-66
2024/03/02 01:43:38;;;;;;;;;;;;;;;8.93;86.54;98886.22;5115886;28;19924;-66
2024/03/02 01:46:09;;;;;;;;;;;;;;;8.89;86.15;98884.56;5116145;28;19931;-65
2024/03/02 01:48:37;;;;;;;;;;;;;;;8.84;85.63;98891.38;5115437;28;19924;-66
2024/03/02 01:51:07;;;;;;;;;;;;;;;8.76;85.67;98868.53;5116092;28;20017;-66
2024/03/02 01:53:37;;;;;;;;;;;;;;;8.81;85.88;98880.34;5115711;28;20289;-65
2024/03/02 01:56:06;;;;;;;;;;;;;;;8.82;86.45;98885.44;5114761;28;19924;-65
2024/03/02 01:58:34;;;;;;;;;;;;;;;8.82;86.79;98876.97;5114614;28;19927;-66
2024/03/02 02:01:03;;;;;;;;;;;;;;;8.84;86.63;98871.00;5115863;28;20369;-66
2024/03/02 02:03:31;;;;;;;;;;;;;;;8.84;86.91;98871.00;5115568;28;19931;-65
2024/03/02 02:06:00;;;;;;;;;;;;;;;8.86;86.71;98868.44;5114116;28;20285;-66
2024/03/02 02:08:28;;;;;;;;;;;;;;;8.85;86.75;98865.09;5115363;28;20449;-66
2024/03/02 02:10:58;;;;;;;;;;;;;;;8.84;87.07;98859.97;5115649;28;19924;-66
2024/03/02 02:13:27;;;;;;;;;;;;;;;8.86;86.57;98869.28;5115743;28;19939;-66
2024/03/02 02:15:55;;;;;;;;;;;;;;;8.83;86.94;98868.50;5114371;28;19931;-66
2024/03/02 02:18:25;;;;;;;;;;;;;;;8.82;87.31;98866.78;5115364;28;19923;-65
2024/03/02 02:20:53;;;;;;;;;;;;;;;8.77;87.13;98869.38;5115803;28;20056;-66
2024/03/02 02:23:23;;;;;;;;;;;;;;;8.73;87.18;98865.16;5115040;28;20381;-66
2024/03/02 02:25:51;;;;;;;;;;;;;;;8.68;87.02;98864.34;5114984;28;19967;-67
2024/03/02 02:28:20;;;;;;;;;;;;;;;8.68;87.15;98864.34;5114920;28;19924;-66
2024/03/02 02:30:48;;;;;;;;;;;;;;;8.68;86.90;98859.25;5115229;28;20430;-66
2024/03/02 02:33:17;;;;;;;;;;;;;;;8.66;86.78;98860.97;5115294;28;19923;-66
2024/03/02 02:35:45;;;;;;;;;;;;;;;8.62;87.57;98855.06;5115581;28;20376;-66
2024/03/02 02:38:14;;;;;;;;;;;;;;;8.64;87.60;98858.41;5114833;28;19924;-66
2024/03/02 02:40:44;;;;;;;;;;;;;;;8.59;87.22;98849.97;5115140;28;19949;-65
2024/03/02 02:43:13;;;;;;;;;;;;;;;8.58;87.59;98847.44;5114926;28;19924;-66
2024/03/02 02:45:41;;;;;;;;;;;;;;;8.55;87.07;98852.53;5114999;28;20022;-66
2024/03/02 02:48:09;;;;;;;;;;;;;;;8.58;87.45;98852.53;5113474;28;19928;-66
2024/03/02 02:50:38;;;;;;;;;;;;;;;8.60;88.01;98856.75;5113568;28;19924;-66
2024/03/02 02:53:09;;;;;;;;;;;;;;;8.59;88.01;98859.31;5114942;28;19930;-66
2024/03/02 02:55:40;;;;;;;;;;;;;;;8.56;87.55;98859.34;5115035;28;19924;-66
2024/03/02 02:58:10;;;;;;;;;;;;;;;8.58;88.24;98855.09;5114999;28;19927;-66
2024/03/02 03:00:39;;;;;;;;;;;;;;;8.58;88.13;98857.63;5113854;28;19927;-66
2024/03/02 03:03:07;;;;;;;;;;;;;;;8.55;88.38;98862.72;5114541;28;19924;-66
2024/03/02 03:05:35;;;;;;;;;;;;;;;8.57;87.67;98871.19;5113454;28;19924;-66
2024/03/02 03:08:04;;;;;;;;;;;;;;;8.56;87.92;98875.44;5113569;28;19930;-66
2024/03/02 03:10:33;;;;;;;;;;;;;;;8.59;88.27;98875.41;5114863;28;19924;-66
2024/03/02 03:13:01;;;;;;;;;;;;;;;8.58;88.05;98883.06;5114726;28;19927;-66
2024/03/02 03:15:31;;;;;;;;;;;;;;;8.60;88.16;98881.34;5114709;28;19927;-66
2024/03/02 03:18:00;;;;;;;;;;;;;;;8.58;88.32;98880.50;5114699;28;19924;-66
2024/03/02 03:20:28;;;;;;;;;;;;;;;8.59;88.13;98874.59;5114241;28;20349;-66
2024/03/02 03:22:57;;;;;;;;;;;;;;;8.56;88.11;98884.75;5114534;28;19973;-66
2024/03/02 03:25:26;;;;;;;;;;;;;;;8.55;88.33;98883.06;5114257;28;19924;-65
2024/03/02 03:27:54;;;;;;;;;;;;;;;8.53;88.40;98879.69;5113429;28;20026;-66
2024/03/02 03:30:23;;;;;;;;;;;;;;;8.49;87.85;98878.88;5114232;28;19924;-66
2024/03/02 03:32:53;;;;;;;;;;;;;;;8.54;88.42;98883.94;5114557;28;19924;-66
2024/03/02 03:35:21;;;;;;;;;;;;;;;8.53;88.36;98882.22;5114876;28;19927;-67
2024/03/02 03:37:49;;;;;;;;;;;;;;;8.52;88.35;98878.00;5114119;28;19931;-66
2024/03/02 03:40:18;;;;;;;;;;;;;;;8.51;88.16;98876.31;5113223;28;19946;-65
2024/03/02 03:42:48;;;;;;;;;;;;;;;8.51;88.34;98871.22;5114167;28;20362;-66
2024/03/02 03:45:17;;;;;;;;;;;;;;;8.49;87.95;98867.84;5114634;28;20465;-66
2024/03/02 03:47:45;;;;;;;;;;;;;;;8.45;88.36;98871.25;5114477;28;19963;-66
2024/03/02 03:50:16;;;;;;;;;;;;;;;8.44;87.90;98869.56;5114715;28;20030;-66
2024/03/02 03:52:44;;;;;;;;;;;;;;;8.44;88.72;98865.34;5112710;28;19931;-66
2024/03/02 03:55:13;;;;;;;;;;;;;;;8.43;88.75;98867.88;5114239;28;20015;-66
2024/03/02 03:57:42;;;;;;;;;;;;;;;8.44;88.46;98857.72;5095581;28;19955;-66
2024/03/02 04:00:11;;;;;;;;;;;;;;;8.43;88.72;98858.56;5114330;28;19924;-66
2024/03/02 04:02:40;;;;;;;;;;;;;;;8.42;89.00;98863.66;5113942;28;20364;-66
2024/03/02 04:05:10;;;;;;;;;;;;;;;8.41;88.69;98856.88;5113770;28;19935;-66
2024/03/02 04:07:42;;;;;;;;;;;;;;;8.37;88.15;98852.66;5114190;28;19923;-66
2024/03/02 04:10:12;;;;;;;;;;;;;;;8.36;88.42;98858.59;5114304;28;19924;-66
2024/03/02 04:12:41;;;;;;;;;;;;;;;8.36;88.06;98856.06;5117761;28;19924;-66
2024/03/02 04:15:09;;;;;;;;;;;;;;;8.31;88.26;98860.31;5117917;28;20266;-66
2024/03/02 04:17:38;;;;;;;;;;;;;;;8.33;88.52;98856.06;5117510;28;19924;-65
2024/03/02 04:20:07;;;;;;;;;;;;;;;8.34;88.53;98858.59;5117832;28;20329;-66
2024/03/02 04:22:36;;;;;;;;;;;;;;;8.36;88.08;98861.13;5116563;28;19924;-66
2024/03/02 04:25:07;;;;;;;;;;;;;;;8.36;88.75;98867.06;5117132;28;20301;-65
2024/03/02 04:27:36;;;;;;;;;;;;;;;8.39;87.95;98866.22;5117755;28;19931;-65
2024/03/02 04:30:05;;;;;;;;;;;;;;;8.42;87.88;98866.19;5116405;28;19923;-66
2024/03/02 04:32:36;;;;;;;;;;;;;;;8.43;89.04;98857.69;5117541;28;19937;-66
2024/03/02 04:35:05;;;;;;;;;;;;;;;8.42;89.01;98864.47;5117614;28;20461;-66
2024/03/02 04:37:35;;;;;;;;;;;;;;;8.39;88.67;98861.13;5117242;28;20378;-66
2024/03/02 04:40:04;;;;;;;;;;;;;;;8.36;88.75;98873.84;5117559;28;20287;-66
2024/03/02 04:42:35;;;;;;;;;;;;;;;8.39;88.88;98872.16;5117524;28;20293;-66
2024/03/02 04:45:03;;;;;;;;;;;;;;;8.44;88.59;98879.75;5117143;28;20388;-66
2024/03/02 04:47:32;;;;;;;;;;;;;;;8.45;88.53;98881.41;5117092;28;19930;-66
2024/03/02 04:50:00;;;;;;;;;;;;;;;8.42;88.39;98876.38;5116131;28;19936;-66
2024/03/02 04:52:28;;;;;;;;;;;;;;;8.40;89.03;98883.13;5098894;28;19930;-66
2024/03/02 04:57:44;;;;;;;;;;;;;;;8.42;88.84;98886.53;5115157;28;19932;-66
2024/03/02 05:00:14;;;;;;;;;;;;;;;8.45;88.95;98894.97;5115891;28;19924;-66
2024/03/02 05:02:42;;;;;;;;;;;;;;;8.47;88.59;98889.91;5116756;28;19974;-66
2024/03/02 05:05:11;;;;;;;;;;;;;;;8.48;89.09;98892.44;5116558;27;19931;-66
2024/03/02 05:07:41;;;;;;;;;;;;;;;8.44;88.96;98895.00;5117197;28;19931;-66
2024/03/02 05:10:11;;;;;;;;;;;;;;;8.44;89.70;98889.91;5115275;28;19928;-66
2024/03/02 05:12:56;;;;;;;;;;;;;;;8.47;89.84;98900.09;5116565;28;20282;-66
2024/03/02 05:15:27;;;;;;;;;;;;;;;8.47;89.52;98900.09;5116828;28;19924;-66
2024/03/02 05:17:56;;;;;;;;;;;;;;;8.49;89.51;98901.75;5117422;28;19924;-66
2024/03/02 05:20:25;;;;;;;;;;;;;;;8.48;89.81;98901.75;5117292;28;20367;-66
2024/03/02 05:22:54;;;;;;;;;;;;;;;8.48;90.22;98901.75;5115647;28;19970;-66
2024/03/02 05:25:22;;;;;;;;;;;;;;;8.51;90.04;98902.59;5116025;28;19997;-66
2024/03/02 05:27:51;;;;;;;;;;;;;;;8.52;89.63;98905.97;5115420;28;19928;-66
2024/03/02 05:30:19;;;;;;;;;;;;;;;8.54;89.46;98899.19;5116824;28;19924;-67
2024/03/02 05:32:49;;;;;;;;;;;;;;;8.55;90.33;98900.88;5115203;28;20357;-66
2024/03/02 05:35:18;;;;;;;;;;;;;;;8.54;89.91;98906.81;5115093;28;20019;-66
2024/03/02 05:37:46;;;;;;;;;;;;;;;8.48;89.93;98911.91;5115185;28;19924;-66
2024/03/02 05:40:15;;;;;;;;;;;;;;;8.51;89.41;98906.84;5116337;28;20373;-66
2024/03/02 05:42:43;;;;;;;;;;;;;;;8.49;89.67;98918.72;5116559;28;19924;-66
2024/03/02 05:45:12;;;;;;;;;;;;;;;8.42;89.97;98920.41;5114732;28;20431;-66
2024/03/02 05:47:40;;;;;;;;;;;;;;;8.40;89.96;98922.13;5116088;28;19923;-66
2024/03/02 05:50:10;;;;;;;;;;;;;;;8.41;90.85;98920.44;5116122;28;19959;-66
2024/03/02 05:52:39;;;;;;;;;;;;;;;8.44;90.17;98920.44;5116092;28;19930;-66
2024/03/02 05:55:08;;;;;;;;;;;;;;;8.46;90.56;98927.19;5114692;28;19924;-66
2024/03/02 05:57:49;;;;;;;;;;;;;;;8.44;90.08;98930.59;5115984;28;19992;-65
2024/03/02 06:00:18;;;;;;;;;;;;;;;8.44;90.37;98936.53;5115856;28;19930;-66
2024/03/02 06:02:46;;;;;;;;;;;;;;;8.46;90.54;98939.06;5114349;28;19924;-66
2024/03/02 06:05:18;;;;;;;;;;;;;;;8.51;89.81;98942.44;5115442;28;20289;-67
2024/03/02 06:07:47;;;;;;;;;;;;;;;8.52;89.90;98949.19;5115863;28;19969;-66
2024/03/02 06:10:15;;;;;;;;;;;;;;;8.53;90.48;98945.81;5115274;28;19924;-66
2024/03/02 06:12:44;;;;;;;;;;;;;;;8.54;90.86;98947.50;5115317;28;20300;-66
2024/03/02 06:15:12;;;;;;;;;;;;;;;8.54;90.54;98957.69;5113975;28;20365;-66
2024/03/02 06:17:41;;;;;;;;;;;;;;;8.57;90.38;98957.66;5115879;28;19931;-66
2024/03/02 06:20:10;;;;;;;;;;;;;;;8.54;90.87;98957.69;5115447;28;19924;-66
2024/03/02 06:22:40;;;;;;;;;;;;;;;8.54;90.56;98967.84;5115149;28;19924;-67
2024/03/02 06:25:09;;;;;;;;;;;;;;;8.57;91.17;98972.91;5114986;28;19966;-66
2024/03/02 06:27:37;;;;;;;;;;;;;;;8.56;91.11;98978.88;5114206;28;19924;-68
2024/03/02 06:30:06;;;;;;;;;;;;;;;8.56;91.57;98977.16;5115312;28;19924;-67
2024/03/02 06:32:35;;;;;;;;;;;;;;;8.61;90.60;98974.59;5114787;28;20270;-67
2024/03/02 06:35:04;;;;;;;;;;;;;;;8.65;91.38;98982.22;5115016;28;19923;-68
2024/03/02 06:37:33;;;;;;;;;;;;;;;8.71;91.51;98986.41;5114811;28;19977;-67
2024/03/02 06:40:03;;;;;;;;;;;;;;;8.73;91.65;98989.81;5113977;28;19989;-66
2024/03/02 06:42:33;;;;;;;;;;;;;;;8.74;91.17;98987.25;5115105;28;19928;-67
2024/03/02 06:45:02;;;;;;;;;;;;;;;8.74;91.40;98991.47;5096697;28;19963;-67
2024/03/02 06:47:32;;;;;;;;;;;;;;;8.75;92.00;98988.09;5115137;28;20014;-67
2024/03/02 06:50:00;;;;;;;;;;;;;;;8.79;91.81;98997.41;5115366;28;20365;-66
2024/03/02 06:52:29;;;;;;;;;;;;;;;8.82;92.28;98991.44;5114574;28;20289;-66
2024/03/02 06:54:57;;;;;;;;;;;;;;;8.84;92.21;98987.19;5112156;28;20446;-67
2024/03/02 06:57:27;;;;;;;;;;;;;;;8.84;92.10;98990.59;5114764;28;19927;-66
2024/03/02 06:59:58;;;;;;;;;;;;;;;8.86;92.21;98999.06;5114852;28;19923;-67
2024/03/02 07:02:28;;;;;;;;;;;;;;;8.88;92.73;98992.25;5114873;28;19928;-66
2024/03/02 07:04:56;;;;;;;;;;;;;;;8.92;92.73;98996.50;5114605;28;19923;-67
2024/03/02 07:07:24;;;;;;;;;;;;;;;8.93;92.50;98998.16;5114312;28;19977;-66
2024/03/02 07:09:53;;;;;;;;;;;;;;;9.00;92.96;99004.91;5114796;28;20006;-66
2024/03/02 07:12:23;;;;;;;;;;;;;;;9.03;92.91;99010.00;5114670;28;19977;-67
2024/03/02 07:17:39;;;;;;;;;;;;;;;9.12;93.58;99015.03;5114832;28;19924;-67
2024/03/02 07:20:12;;;;;;;;;;;;;;;9.14;93.62;99018.41;5114327;28;19924;-66
2024/03/02 07:22:41;;;;;;;;;;;;;;;9.17;94.17;99015.00;5113424;28;19924;-67
2024/03/02 07:25:12;;;;;;;;;;;;;;;9.18;93.83;99019.25;5114162;28;19927;-66
2024/03/02 07:27:44;;;;;;;;;;;;;;;9.18;93.99;99015.00;5113354;28;20532;-66
2024/03/02 07:30:17;;;;;;;;;;;;;;;9.24;94.44;99025.16;5113096;28;20348;-67
2024/03/02 07:32:46;;;;;;;;;;;;;;;9.27;94.39;99021.75;5114542;28;19927;-66
2024/03/02 07:35:14;;;;;;;;;;;;;;;9.29;94.51;99022.56;5114506;28;20385;-66
2024/03/02 07:37:43;;;;;;;;;;;;;;;9.32;94.92;99028.50;5114088;28;19928;-66
2024/03/02 07:40:12;;;;;;;;;;;;;;;9.36;94.42;99042.03;5114160;28;20012;-66
2024/03/02 07:42:41;;;;;;;;;;;;;;;9.37;95.10;99034.41;5114109;28;19931;-66
2024/03/02 07:45:09;;;;;;;;;;;;;;;9.42;94.77;99030.13;5114232;28;19924;-67
2024/03/02 07:47:39;;;;;;;;;;;;;;;9.48;95.43;99033.50;5117848;28;19924;-66
2024/03/02 07:50:08;;;;;;;;;;;;;;;9.50;95.11;99041.97;5118089;28;20288;-66
2024/03/02 07:52:37;;;;;;;;;;;;;;;9.51;95.36;99038.56;5118387;28;19969;-66
2024/03/02 07:55:06;;;;;;;;;;;;;;;9.54;95.47;99044.50;5118246;28;19924;-66
2024/03/02 07:57:34;;;;;;;;;;;;;;;9.59;95.70;99036.81;5108769;28;19942;-67
2024/03/02 08:00:03;;;;;;;;;;;;;;;9.62;95.66;99036.78;5113425;28;19930;-66
2024/03/02 08:02:42;;;;;;;;;;;;;;;9.63;96.00;99041.88;5117822;28;19931;-66
2024/03/02 08:05:10;;;;;;;;;;;;;;;9.65;95.95;99037.59;5118017;28;19924;-66
2024/03/02 08:07:39;;;;;;;;;;;;;;;9.69;96.00;99036.75;5118382;28;19924;-66
2024/03/02 08:10:08;;;;;;;;;;;;;;;9.71;96.27;99041.81;5118100;28;19967;-66
2024/03/02 08:12:36;;;;;;;;;;;;;;;9.74;96.41;99036.72;5116645;28;19931;-66
2024/03/02 08:15:05;;;;;;;;;;;;;;;9.75;96.42;99038.38;5117986;28;19950;-66
2024/03/02 08:17:34;;;;;;;;;;;;;;;9.79;96.47;99042.63;5117553;28;20300;-66
2024/03/02 08:20:08;;;;;;;;;;;;;;;9.80;96.55;99042.59;5117853;28;19930;-66
2024/03/02 08:22:37;;;;;;;;;;;;;;;9.81;96.26;99040.91;5117443;28;19924;-66
2024/03/02 08:25:05;;;;;;;;;;;;;;;9.82;96.24;99037.47;5117421;28;20331;-65
2024/03/02 08:27:34;;;;;;;;;;;;;;;9.84;96.78;99041.69;5117363;28;19927;-66
2024/03/02 08:30:06;;;;;;;;;;;;;;;9.86;96.25;99031.50;5116674;28;19928;-63
2024/03/02 08:32:35;;;;;;;;;;;;;;;9.90;96.64;99038.25;5116910;28;19924;-66
2024/03/02 08:35:05;;;;;;;;;;;;;;;9.96;96.64;99038.19;5117501;28;19962;-68
2024/03/02 08:37:35;;;;;;;;;;;;;;;9.98;96.44;99041.59;5117524;27;19924;-66
2024/03/02 08:40:07;;;;;;;;;;;;;;;9.99;96.93;99043.28;5117385;28;19924;-65
2024/03/02 08:42:36;;;;;;;;;;;;;;;10.01;96.57;99036.44;5116335;28;20373;-66
2024/03/02 08:45:04;;;;;;;;;;;;;;;10.00;96.81;99034.78;5116985;28;20391;-65
2024/03/02 08:47:33;;;;;;;;;;;;;;;10.03;96.81;99035.59;5116806;28;19923;-65
2024/03/02 08:50:03;;;;;;;;;;;;;;;10.05;96.80;99033.03;5117317;28;20010;-66
2024/03/02 08:52:33;;;;;;;;;;;;;;;10.08;96.83;99038.09;5116149;28;20366;-66
2024/03/02 08:55:02;;;;;;;;;;;;;;;10.09;96.94;99039.78;5116720;28;19949;-66
2024/03/02 08:57:31;;;;;;;;;;;;;;;10.12;97.01;99034.69;5116819;28;20015;-65
2024/03/02 09:00:00;;;;;;;;;;;;;;;10.14;96.50;99027.88;5117123;28;20368;-66
2024/03/02 09:02:28;;;;;;;;;;;;;;;10.15;96.86;99036.38;5115047;28;19924;-66
2024/03/02 09:04:57;;;;;;;;;;;;;;;10.18;96.54;99036.31;5115644;28;19923;-66
2024/03/02 09:07:26;;;;;;;;;;;;;;;10.17;96.45;99032.97;5116705;28;19977;-67
2024/03/02 09:09:54;;;;;;;;;;;;;;;10.15;96.86;99037.19;5116738;28;19936;-66
2024/03/02 09:12:24;;;;;;;;;;;;;;;10.13;96.71;99041.47;5116869;28;19923;-66
2024/03/02 09:14:53;;;;;;;;;;;;;;;10.09;96.41;99035.53;5117427;28;19924;-67
2024/03/02 09:17:21;;;;;;;;;;;;;;;10.09;96.77;99044.88;5116724;28;19924;-66
2024/03/02 09:19:52;;;;;;;;;;;;;;;10.11;96.49;99038.06;5116676;28;19924;-66
2024/03/02 09:22:21;;;;;;;;;;;;;;;10.17;96.71;99038.06;5116463;28;20014;-68
2024/03/02 09:24:49;;;;;;;;;;;;;;;10.21;97.15;99039.72;5116167;28;20373;-66
2024/03/02 09:27:18;;;;;;;;;;;;;;;10.22;96.53;99045.66;5114504;28;19924;-68
2024/03/02 09:29:47;;;;;;;;;;;;;;;10.19;96.58;99041.44;5098230;28;20358;-68
2024/03/02 09:32:16;;;;;;;;;;;;;;;10.23;96.66;99044.78;5116496;28;20348;-68
2024/03/02 09:34:48;;;;;;;;;;;;;;;10.30;96.66;99044.72;5115193;28;19928;-67
2024/03/02 09:37:16;;;;;;;;;;;;;;;10.35;96.68;99053.16;5116342;28;19923;-65
2024/03/02 09:39:45;;;;;;;;;;;;;;;10.38;96.91;99053.13;5116272;28;19978;-65
2024/03/02 09:42:14;;;;;;;;;;;;;;;10.42;96.63;99054.78;5116210;28;19923;-66
2024/03/02 09:44:43;;;;;;;;;;;;;;;10.41;96.63;99053.13;5114520;28;20278;-67
2024/03/02 09:47:13;;;;;;;;;;;;;;;10.41;96.45;99053.13;5116293;28;20030;-65
2024/03/02 09:49:41;;;;;;;;;;;;;;;10.43;96.35;99056.50;5116067;28;19963;-65
2024/03/02 09:52:11;;;;;;;;;;;;;;;10.46;96.42;99056.44;5115777;28;20438;-65
2024/03/02 09:54:39;;;;;;;;;;;;;;;10.50;96.66;99047.91;5115570;28;20293;-65
2024/03/02 09:57:08;;;;;;;;;;;;;;;10.53;96.33;99052.97;5114732;28;19924;-65
2024/03/02 09:59:38;;;;;;;;;;;;;;;10.55;96.45;99051.25;5116104;28;20316;-67
2024/03/02 10:02:07;;;;;;;;;;;;;;;10.58;96.59;99051.22;5115824;28;19927;-66
2024/03/02 10:04:37;;;;;;;;;;;;;;;10.61;96.45;99046.06;5116266;28;19927;-66
2024/03/02 10:07:12;;;;;;;;;;;;;;;10.64;96.54;99051.16;5115788;28;19935;-66
2024/03/02 10:09:41;;;;;;;;;;;;;;;10.65;96.53;99045.16;5115347;28;19924;-67
2024/03/02 10:12:11;;;;;;;;;;;;;;;10.63;96.39;99043.50;5113629;28;20013;-66
2024/03/02 10:14:40;;;;;;;;;;;;;;;10.60;96.46;99039.31;5115210;28;19923;-66
2024/03/02 10:17:09;;;;;;;;;;;;;;;10.63;96.15;99048.59;5102898;28;19955;-66
2024/03/02 10:19:40;;;;;;;;;;;;;;;10.65;96.44;99041.81;5095319;28;20017;-67
2024/03/02 10:22:09;;;;;;;;;;;;;;;10.63;96.21;99038.41;5094788;28;19931;-67
2024/03/02 10:24:39;;;;;;;;;;;;;;;10.66;96.35;99035.81;5094932;28;19959;-67
2024/03/02 10:27:09;;;;;;;;;;;;;;;10.69;96.31;99040.91;5093217;28;20322;-67
2024/03/02 10:29:39;;;;;;;;;;;;;;;10.71;96.24;99040.00;5095025;28;19955;-67
2024/03/02 10:32:09;;;;;;;;;;;;;;;10.69;96.26;99054.50;5095322;28;19931;-67
2024/03/02 10:34:41;;;;;;;;;;;;;;;10.68;96.21;99045.16;5093573;28;19969;-67
2024/03/02 10:37:09;;;;;;;;;;;;;;;10.67;96.17;99046.03;5095036;28;20010;-66
2024/03/02 10:39:39;;;;;;;;;;;;;;;10.66;95.97;99044.31;5094783;28;19924;-67
2024/03/02 10:42:09;;;;;;;;;;;;;;;10.68;95.82;99047.69;5094429;28;19956;-67
2024/03/02 10:44:38;;;;;;;;;;;;;;;10.73;95.67;99042.53;5094676;28;19931;-67
2024/03/02 10:47:06;;;;;;;;;;;;;;;10.81;96.08;99045.00;5094498;28;19924;-67
2024/03/02 10:49:35;;;;;;;;;;;;;;;10.85;96.07;99049.19;5094337;28;20298;-68
2024/03/02 10:52:05;;;;;;;;;;;;;;;10.93;95.85;99042.31;5093093;28;20452;-67
2024/03/02 10:54:39;;;;;;;;;;;;;;;10.96;95.80;99049.94;5094915;28;20364;-67
2024/03/02 10:57:09;;;;;;;;;;;;;;;10.94;95.79;99044.00;5094659;28;20022;-67
2024/03/02 10:59:39;;;;;;;;;;;;;;;10.92;95.77;99036.34;5093053;28;19924;-67
2024/03/02 11:02:09;;;;;;;;;;;;;;;10.97;95.77;99038.84;5093264;28;19984;-67
2024/03/02 11:04:38;;;;;;;;;;;;;;;11.02;95.78;99043.03;5094351;28;20014;-67
2024/03/02 11:07:09;;;;;;;;;;;;;;;11.05;95.68;99044.69;5092913;28;19924;-67
2024/03/02 11:09:41;;;;;;;;;;;;;;;10.98;95.72;99045.66;5094462;28;19924;-67
2024/03/02 11:12:13;;;;;;;;;;;;;;;10.97;95.61;99038.84;5094614;28;19924;-67
2024/03/02 11:14:43;;;;;;;;;;;;;;;10.95;95.76;99041.41;5094419;28;20374;-67
2024/03/02 11:17:11;;;;;;;;;;;;;;;10.96;95.79;99043.13;5092734;28;20340;-67
2024/03/02 11:19:41;;;;;;;;;;;;;;;10.92;95.61;99046.56;5094148;28;19931;-67
2024/03/02 11:22:12;;;;;;;;;;;;;;;10.88;95.67;99044.06;5097484;28;19924;-67
2024/03/02 11:24:48;;;;;;;;;;;;;;;10.83;95.58;99043.28;5098411;28;19924;-67
2024/03/02 11:27:37;;;;;;;;;;;;;;;10.81;95.86;99037.34;5098453;28;19975;-66
2024/03/02 11:30:07;;;;;;;;;;;;;;;10.81;95.80;99037.34;5098177;28;19934;-67
2024/03/02 11:32:36;;;;;;;;;;;;;;;10.80;95.76;99036.50;5098412;28;19935;-66
2024/03/02 11:35:04;;;;;;;;;;;;;;;10.79;95.81;99034.81;5098228;28;20002;-67
2024/03/02 11:37:35;;;;;;;;;;;;;;;10.79;96.00;99029.72;5097959;28;19924;-67
2024/03/02 11:40:04;;;;;;;;;;;;;;;10.82;95.92;99028.84;5098161;28;19924;-67
2024/03/02 11:42:32;;;;;;;;;;;;;;;10.87;96.21;99030.44;5098193;28;19928;-67
2024/03/02 11:45:01;;;;;;;;;;;;;;;10.92;95.89;99020.22;5098059;28;19930;-67
2024/03/02 11:47:32;;;;;;;;;;;;;;;10.96;96.16;99022.69;5098084;28;19931;-67
2024/03/02 11:50:06;;;;;;;;;;;;;;;11.02;96.22;99026.84;5098106;28;20009;-67
2024/03/02 11:52:37;;;;;;;;;;;;;;;11.02;96.33;99019.19;5098022;28;19928;-67
2024/03/02 11:55:07;;;;;;;;;;;;;;;11.04;96.14;99022.56;5098382;28;19924;-67
2024/03/02 11:57:36;;;;;;;;;;;;;;;11.02;96.25;99032.81;5097886;28;19982;-67
2024/03/02 12:00:06;;;;;;;;;;;;;;;11.03;96.17;99026.00;5097522;28;20386;-67
2024/03/02 12:02:35;;;;;;;;;;;;;;;10.97;96.20;99028.63;5096531;28;20397;-67
2024/03/02 12:05:05;;;;;;;;;;;;;;;10.96;96.35;99032.06;5097641;28;20023;-67
2024/03/02 12:07:33;;;;;;;;;;;;;;;10.95;96.18;99030.34;5097542;28;19928;-67
2024/03/02 12:10:05;;;;;;;;;;;;;;;10.95;96.38;99017.59;5096358;28;19924;-68
2024/03/02 12:12:33;;;;;;;;;;;;;;;10.96;96.36;99024.41;5097662;28;19924;-67
2024/03/02 12:15:03;;;;;;;;;;;;;;;10.95;96.34;99021.00;5097444;28;19991;-68
2024/03/02 12:17:31;;;;;;;;;;;;;;;10.98;96.51;99025.22;5097324;28;19931;-67
2024/03/02 12:20:03;;;;;;;;;;;;;;;10.99;96.45;99022.63;5097534;28;19928;-67
2024/03/02 12:22:32;;;;;;;;;;;;;;;11.00;96.50;99026.03;5097503;28;19931;-67
2024/03/02 12:25:01;;;;;;;;;;;;;;;10.96;96.47;99020.16;5097072;28;19969;-68
2024/03/02 12:27:31;;;;;;;;;;;;;;;10.94;96.54;99023.59;5097254;28;19924;-68
2024/03/02 12:29:59;;;;;;;;;;;;;;;10.94;96.74;99024.41;5097413;28;19949;-67
2024/03/02 12:32:28;;;;;;;;;;;;;;;10.98;96.72;99020.13;5096768;28;19932;-68
2024/03/02 12:34:56;;;;;;;;;;;;;;;11.00;96.71;99020.94;5096789;28;19936;-67
2024/03/02 12:37:24;;;;;;;;;;;;;;;10.99;96.76;99022.63;5095946;28;19924;-68
2024/03/02 12:39:53;;;;;;;;;;;;;;;11.01;96.87;99025.19;5097390;28;20027;-67
2024/03/02 12:42:22;;;;;;;;;;;;;;;11.02;96.89;99021.75;5096715;28;19924;-67
2024/03/02 12:44:54;;;;;;;;;;;;;;;11.02;96.87;99014.94;5096683;28;19924;-67
2024/03/02 12:47:22;;;;;;;;;;;;;;;11.05;97.08;99016.63;5097148;28;20007;-67
2024/03/02 12:49:52;;;;;;;;;;;;;;;11.09;97.09;99013.16;5096696;28;19924;-67
2024/03/02 12:52:20;;;;;;;;;;;;;;;11.13;97.16;99012.25;5096845;28;19945;-67
2024/03/02 12:54:50;;;;;;;;;;;;;;;11.13;97.08;99010.53;5096790;28;19970;-67
2024/03/02 12:57:18;;;;;;;;;;;;;;;11.19;97.17;99014.72;5096777;28;19924;-67
2024/03/02 12:59:47;;;;;;;;;;;;;;;11.19;96.98;99014.72;5095467;28;19928;-67
2024/03/02 13:02:19;;;;;;;;;;;;;;;11.17;96.98;99008.78;5096698;28;19928;-67
2024/03/02 13:04:54;;;;;;;;;;;;;;;11.18;96.96;99010.50;5096334;28;20374;-67
2024/03/02 13:07:23;;;;;;;;;;;;;;;11.23;96.78;99016.34;5096618;28;19931;-66
2024/03/02 13:09:51;;;;;;;;;;;;;;;11.22;96.72;99005.31;5096170;28;19924;-67